Time;durP1;ratioP1;P1;durP2;ratioP2;P2;SDS_P1;SDS_P2;PMS_P1;PMS_P2;Temp;Humidity;BMP_temperature;BMP_pressure;BME280_temperature;BME280_humidity;BME280_pressure;Samples;Min_cycle;Max_cycle;Signal;HPM_P1;HPM_P2
2022/11/02 00:02:17;;;;;;;16.10;6.20;;;;;;;6.52;56.63;99712.27;24505;1331;3027600;-69
2022/11/02 00:04:46;;;;;;;15.10;6.00;;;;;;;6.66;56.12;99702.18;24457;1325;3026422;-63
2022/11/02 00:07:15;;;;;;;16.20;6.30;;;;;;;6.78;56.21;99699.59;24477;1333;3068870;-62
2022/11/02 00:09:46;;;;;;;13.10;5.30;;;;;;;6.81;55.69;99701.20;24484;1326;3028568;-63
2022/11/02 00:12:15;;;;;;;11.80;5.30;;;;;;;6.88;55.32;99697.25;24487;1334;3028773;-63
2022/11/02 00:14:44;;;;;;;19.20;6.30;;;;;;;6.93;55.77;99694.25;24498;1338;3068090;-64
2022/11/02 00:17:14;;;;;;;13.00;5.50;;;;;;;6.97;55.28;99693.58;24449;1341;3026352;-69
2022/11/02 00:19:43;;;;;;;13.80;4.60;;;;;;;7.02;54.83;99692.34;24518;1326;3028111;-66
2022/11/02 00:22:12;;;;;;;11.20;5.00;;;;;;;7.06;54.25;99686.75;24458;1332;3069390;-69
2022/11/02 00:24:43;;;;;;;9.80;4.10;;;;;;;7.09;53.92;99686.27;24466;1332;3028525;-66
2022/11/02 00:27:12;;;;;;;15.90;6.00;;;;;;;7.15;54.90;99679.42;24528;1336;3026202;-66
2022/11/02 00:29:42;;;;;;;15.40;5.70;;;;;;;7.04;56.28;99684.76;24433;1325;3068503;-66
2022/11/02 00:32:11;;;;;;;12.60;5.60;;;;;;;7.07;56.36;99681.67;24546;1332;3029800;-64
2022/11/02 00:34:40;;;;;;;14.30;5.20;;;;;;;7.05;55.82;99679.47;24462;1338;3049204;-63
2022/11/02 00:37:09;;;;;;;17.60;6.00;;;;;;;7.08;56.03;99680.59;24484;1326;3027089;-70
2022/11/02 00:39:39;;;;;;;15.10;5.10;;;;;;;7.11;55.13;99690.39;24439;1332;3053851;-64
2022/11/02 00:42:08;;;;;;;12.70;5.90;;;;;;;7.15;54.16;99690.20;24495;1316;3025758;-64
2022/11/02 00:44:37;;;;;;;15.00;6.20;;;;;;;7.01;55.94;99688.70;24374;1333;3052209;-69
2022/11/02 00:47:06;;;;;;;12.50;5.60;;;;;;;6.98;55.66;99688.84;24479;1333;3028171;-68
2022/11/02 00:49:35;;;;;;;17.60;6.40;;;;;;;6.90;55.96;99686.38;24514;1333;3053695;-69
2022/11/02 00:52:04;;;;;;;17.00;8.00;;;;;;;6.86;55.43;99682.73;24455;1326;3029109;-69
2022/11/02 00:54:35;;;;;;;14.30;6.70;;;;;;;6.92;55.50;99677.55;24476;1332;3052006;-72
2022/11/02 00:57:03;;;;;;;15.30;6.90;;;;;;;6.93;55.41;99672.48;24489;1322;3030355;-69
2022/11/02 00:59:33;;;;;;;16.50;6.80;;;;;;;6.86;55.73;99671.21;24429;1333;3057259;-68
2022/11/02 01:02:02;;;;;;;16.50;7.70;;;;;;;6.76;55.88;99673.73;24487;1333;3029262;-62
2022/11/02 01:04:31;;;;;;;18.70;7.00;;;;;;;6.66;56.50;99675.52;24538;1333;3050278;-71
2022/11/02 01:07:01;;;;;;;18.70;6.70;;;;;;;6.64;56.37;99672.83;24426;1333;3028592;-68
2022/11/02 01:09:30;;;;;;;14.30;6.60;;;;;;;6.70;55.96;99677.47;24437;1325;3067968;-62
2022/11/02 01:11:59;;;;;;;19.70;7.00;;;;;;;6.72;55.75;99679.64;24472;1336;3028618;-64
2022/11/02 01:14:28;;;;;;;23.50;8.00;;;;;;;6.77;55.22;99674.74;24461;1333;3048379;-64
2022/11/02 01:17:02;;;;;;;15.20;5.60;;;;;;;6.64;55.54;99671.79;24485;1327;3028007;-67
2022/11/02 01:19:31;;;;;;;17.60;6.60;;;;;;;6.53;55.60;99667.52;24508;1332;3025765;-66
2022/11/02 01:22:00;;;;;;;16.40;5.70;;;;;;;6.53;55.68;99670.30;24433;1333;3028799;-68
2022/11/02 01:24:29;;;;;;;19.70;6.10;;;;;;;6.53;55.91;99669.96;24460;1325;3068947;-63
2022/11/02 01:26:58;;;;;;;24.20;6.60;;;;;;;6.46;56.35;99666.06;24388;1336;3025755;-69
2022/11/02 01:29:27;;;;;;;17.00;6.50;;;;;;;6.56;56.39;99667.23;24436;1336;3051814;-68
2022/11/02 01:31:56;;;;;;;16.60;6.60;;;;;;;6.40;56.98;99669.45;24458;1320;3028182;-69
2022/11/02 01:34:25;;;;;;;20.40;7.00;;;;;;;6.39;56.88;99670.35;24481;1332;3052229;-67
2022/11/02 01:36:55;;;;;;;15.10;6.50;;;;;;;6.27;57.27;99670.30;24449;1333;3028838;-66
2022/11/02 01:39:24;;;;;;;19.30;6.60;;;;;;;6.17;57.73;99671.74;24481;1325;3027966;-67
2022/11/02 01:41:54;;;;;;;19.40;6.20;;;;;;;6.17;57.82;99668.08;24421;1333;3054747;-68
2022/11/02 01:44:34;;;;;;;15.20;6.20;;;;;;;5.98;58.62;99666.90;24473;1333;3029783;-69
2022/11/02 01:47:16;;;;;;;16.10;6.80;;;;;;;6.01;58.63;99670.26;24437;1343;3068250;-63
2022/11/02 01:49:49;;;;;;;13.50;6.40;;;;;;;5.97;58.75;99670.94;24458;1333;3050876;-64
2022/11/02 01:52:20;;;;;;;19.40;7.00;;;;;;;5.89;58.93;99664.45;24458;1333;3027368;-64
2022/11/02 01:55:03;;;;;;;14.20;5.60;;;;;;;5.87;58.95;99661.54;24462;1339;3026553;-60
2022/11/02 01:57:32;;;;;;;11.20;5.50;;;;;;;5.86;58.59;99658.45;24441;1336;3054799;-68
2022/11/02 02:00:09;;;;;;;13.90;4.70;;;;;;;5.81;58.45;99660.40;24457;1334;3029234;-67
2022/11/02 02:03:20;;;;;;;11.00;5.50;;;;;;;5.79;58.11;99657.85;24444;1333;3053755;-63
2022/11/02 02:05:59;;;;;;;10.40;5.20;;;;;;;5.84;57.82;99662.70;24410;1328;3050640;-66
2022/11/02 02:08:28;;;;;;;14.40;5.60;;;;;;;5.82;57.69;99664.34;24436;1333;3069122;-66
2022/11/02 02:10:58;;;;;;;12.80;5.30;;;;;;;5.81;57.57;99665.42;24436;1333;3027128;-57
2022/11/02 02:13:28;;;;;;;13.30;5.20;;;;;;;5.83;57.47;99658.23;24492;1333;3027469;-64
2022/11/02 02:16:08;;;;;;;8.80;4.00;;;;;;;5.82;57.23;99655.83;24435;1333;3030021;-68
2022/11/02 02:18:39;;;;;;;16.60;5.50;;;;;;;5.91;56.95;99654.44;24455;1335;3052947;-64
2022/11/02 02:21:28;;;;;;;12.50;5.50;;;;;;;5.90;57.38;99651.69;24422;1336;3028679;-66
2022/11/02 02:24:09;;;;;;;12.30;5.00;;;;;;;5.82;57.63;99654.62;24469;1333;3052214;-68
2022/11/02 02:26:58;;;;;;;10.80;5.20;;;;;;;5.85;57.24;99657.79;24492;1331;3050585;-62
2022/11/02 02:29:38;;;;;;;13.90;4.90;;;;;;;5.84;57.58;99665.80;24401;1334;3068894;-67
2022/11/02 02:32:17;;;;;;;10.80;4.80;;;;;;;5.77;57.78;99667.86;24496;1326;3049894;-64
2022/11/02 02:34:58;;;;;;;10.90;5.40;;;;;;;5.78;56.84;99661.38;24487;1326;3058098;-65
2022/11/02 02:37:33;;;;;;;11.10;5.10;;;;;;;5.77;57.15;99658.27;24496;1324;3051851;-67
2022/11/02 02:40:15;;;;;;;13.90;6.20;;;;;;;5.65;57.64;99651.24;24498;1343;3054893;-63
2022/11/02 02:42:52;;;;;;;14.80;4.80;;;;;;;5.56;58.58;99659.75;24441;1328;3052158;-67
2022/11/02 02:45:27;;;;;;;15.00;5.40;;;;;;;5.59;58.17;99670.23;24437;1333;3053015;-73
2022/11/02 02:47:59;;;;;;;11.50;4.20;;;;;;;5.68;57.71;99662.80;24401;1336;3050523;-63
2022/11/02 02:50:31;;;;;;;10.00;4.20;;;;;;;5.68;57.23;99660.52;24442;1333;3026508;-65
2022/11/02 02:53:01;;;;;;;9.70;4.00;;;;;;;5.67;57.19;99657.45;24486;1339;3026400;-67
2022/11/02 02:55:32;;;;;;;8.40;4.30;;;;;;;5.67;57.01;99659.49;24464;1333;3029834;-63
2022/11/02 02:58:02;;;;;;;11.40;4.70;;;;;;;5.69;56.82;99663.44;24522;1333;3027961;-64
2022/11/02 03:00:32;;;;;;;10.50;5.40;;;;;;;5.71;57.23;99667.02;24435;1320;3029766;-72
2022/11/02 03:03:02;;;;;;;12.00;5.30;;;;;;;5.57;58.49;99659.04;24469;1336;3057838;-63
2022/11/02 03:05:33;;;;;;;10.60;4.80;;;;;;;5.50;59.02;99658.44;24497;1331;3029891;-61
2022/11/02 03:08:11;;;;;;;11.10;5.50;;;;;;;5.50;58.98;99659.64;24518;1337;3026476;-63
2022/11/02 03:10:48;;;;;;;15.20;5.60;;;;;;;5.31;59.46;99658.02;24493;1333;3052561;-63
2022/11/02 03:14:05;;;;;;;11.80;5.50;;;;;;;5.38;59.12;99658.66;24475;1335;3052884;-61
2022/11/02 03:16:58;;;;;;;17.30;5.00;;;;;;;5.38;58.70;99649.12;24487;1333;3051705;-59
2022/11/02 03:19:37;;;;;;;11.80;4.50;;;;;;;5.32;58.97;99651.58;24456;1326;3069295;-65
2022/11/02 03:22:42;;;;;;;11.40;5.30;;;;;;;5.48;57.76;99658.67;24461;1331;3052449;-67
2022/11/02 03:25:28;;;;;;;9.90;4.60;;;;;;;5.47;57.54;99656.78;24496;1326;3058462;-69
2022/11/02 03:28:21;;;;;;;11.30;4.30;;;;;;;5.47;57.14;99652.25;24511;1329;3053707;-63
2022/11/02 03:30:57;;;;;;;9.20;4.10;;;;;;;5.30;57.79;99644.38;24394;1339;3054455;-68
2022/11/02 03:33:30;;;;;;;10.30;4.50;;;;;;;5.32;57.38;99638.23;24441;1326;3051220;-65
2022/11/02 03:36:32;;;;;;;14.00;4.80;;;;;;;5.27;57.70;99641.16;24480;1333;3053597;-62
2022/11/02 03:39:07;;;;;;;9.40;4.60;;;;;;;5.23;58.45;99635.58;24447;1341;3050257;-62
2022/11/02 03:41:39;;;;;;;9.50;4.00;;;;;;;5.28;58.02;99629.32;24457;1333;3069903;-66
2022/11/02 03:44:18;;;;;;;13.50;5.10;;;;;;;5.33;57.63;99631.40;24508;1333;3026537;-61
2022/11/02 03:46:47;;;;;;;12.00;5.40;;;;;;;5.44;55.74;99630.64;24478;1334;3057931;-68
2022/11/02 03:49:17;;;;;;;14.00;4.20;;;;;;;5.44;55.41;99619.55;24475;1336;3029174;-63
2022/11/02 03:51:47;;;;;;;8.10;3.40;;;;;;;5.48;54.41;99616.27;24470;1330;3050814;-66
2022/11/02 03:54:21;;;;;;;8.50;3.50;;;;;;;5.55;53.10;99616.86;24512;1320;3027582;-66
2022/11/02 03:56:51;;;;;;;8.00;3.40;;;;;;;5.59;52.57;99618.98;24486;1324;3070344;-68
2022/11/02 03:59:20;;;;;;;8.00;2.90;;;;;;;5.66;52.10;99614.02;24492;1325;3028923;-66
2022/11/02 04:01:50;;;;;;;7.70;2.60;;;;;;;5.74;51.84;99615.13;24555;1330;3028531;-68
2022/11/02 04:04:20;;;;;;;8.20;2.60;;;;;;;5.82;51.09;99609.95;24545;1331;3026850;-63
2022/11/02 04:06:51;;;;;;;9.20;3.40;;;;;;;5.80;49.84;99608.65;24516;1325;3030121;-63
2022/11/02 04:09:20;;;;;;;6.60;2.90;;;;;;;5.78;49.96;99606.95;24434;1332;3029886;-65
2022/11/02 04:14:38;;;;;;;9.20;3.50;;;;;;;5.94;50.25;99609.50;24522;1333;3049930;-65
2022/11/02 04:20:10;;;;;;;7.90;3.20;;;;;;;6.00;49.40;99615.52;24503;1332;3051417;-65
2022/11/02 04:25:29;;;;;;;6.40;3.10;;;;;;;6.00;49.07;99604.91;24523;1333;3053361;-62
2022/11/02 04:28:09;;;;;;;7.80;2.90;;;;;;;6.00;49.50;99600.05;24506;1333;3055309;-63
2022/11/02 04:30:43;;;;;;;7.20;3.30;;;;;;;5.96;49.71;99597.59;24496;1330;3052954;-67
2022/11/02 04:36:06;;;;;;;8.70;3.20;;;;;;;5.95;49.23;99592.41;24460;1332;3053404;-67
2022/11/02 04:38:42;;;;;;;5.90;3.10;;;;;;;6.00;49.41;99588.56;24529;1326;3025849;-67
2022/11/02 04:44:16;;;;;;;7.30;3.00;;;;;;;5.97;49.91;99587.27;24518;1333;3049144;-66
2022/11/02 04:46:50;;;;;;;7.20;2.90;;;;;;;6.07;50.06;99588.99;24554;1333;3069264;-62
2022/11/02 04:49:21;;;;;;;5.50;2.90;;;;;;;6.04;49.92;99580.06;24601;1334;3026484;-67
2022/11/02 04:51:50;;;;;;;8.50;3.30;;;;;;;5.95;49.98;99577.65;24465;1339;3027017;-66
2022/11/02 04:54:22;;;;;;;6.10;2.50;;;;;;;6.07;49.78;99581.16;24549;1332;3025667;-59
2022/11/02 04:56:55;;;;;;;5.60;2.70;;;;;;;6.12;49.13;99580.09;24479;1333;3029885;-69
2022/11/02 04:59:25;;;;;;;6.00;2.40;;;;;;;6.04;48.87;99582.31;24467;1332;3028826;-70
2022/11/02 05:01:54;;;;;;;8.50;3.20;;;;;;;6.02;49.17;99573.02;24508;1339;3029854;-63
2022/11/02 05:04:23;;;;;;;8.60;3.10;;;;;;;6.01;49.24;99572.73;24493;1325;3029092;-66
2022/11/02 05:06:52;;;;;;;9.20;3.50;;;;;;;6.07;49.79;99583.94;24506;1332;3051577;-64
2022/11/02 05:09:21;;;;;;;7.00;3.50;;;;;;;6.17;49.53;99588.25;24551;1332;3031902;-66
2022/11/02 05:11:52;;;;;;;8.50;3.40;;;;;;;6.06;49.45;99585.55;24586;1331;3026785;-65
2022/11/02 05:14:21;;;;;;;8.90;3.40;;;;;;;6.13;49.76;99582.84;24478;1331;3028725;-65
2022/11/02 05:16:50;;;;;;;8.90;3.80;;;;;;;6.04;50.13;99578.86;24485;1334;3053515;-65
2022/11/02 05:19:21;;;;;;;12.40;4.50;;;;;;;5.97;50.80;99570.59;24568;1333;3028026;-65
2022/11/02 05:21:51;;;;;;;11.40;4.90;;;;;;;5.95;51.21;99570.33;24493;1326;3028467;-70
2022/11/02 05:24:20;;;;;;;12.90;4.80;;;;;;;5.83;51.76;99574.44;24532;1331;3027618;-66
2022/11/02 05:26:49;;;;;;;11.90;4.00;;;;;;;5.85;51.86;99574.88;24499;1341;3050058;-72
2022/11/02 05:29:19;;;;;;;10.30;4.00;;;;;;;6.01;51.99;99574.59;24517;1331;3028540;-60
2022/11/02 05:31:49;;;;;;;12.20;4.70;;;;;;;5.91;51.94;99570.48;24507;1332;3029700;-67
2022/11/02 05:34:18;;;;;;;11.70;4.60;;;;;;;5.89;52.39;99567.61;24551;1339;3027517;-65
2022/11/02 05:36:48;;;;;;;9.60;4.10;;;;;;;5.91;52.81;99571.17;24543;1316;3029110;-64
2022/11/02 05:39:17;;;;;;;11.80;4.90;;;;;;;5.96;52.68;99569.42;24548;1331;3028030;-62
2022/11/02 05:41:47;;;;;;;12.20;4.80;;;;;;;5.94;52.94;99567.59;24503;1330;3028694;-60
2022/11/02 05:44:16;;;;;;;14.50;5.30;;;;;;;5.86;53.48;99575.86;24481;1333;3028725;-70
2022/11/02 05:46:46;;;;;;;12.10;5.60;;;;;;;5.85;53.56;99577.50;24469;1333;3026858;-64
2022/11/02 05:49:15;;;;;;;10.20;4.70;;;;;;;5.68;53.78;99577.98;24571;1323;3027454;-65
2022/11/02 05:51:44;;;;;;;10.80;4.90;;;;;;;5.82;53.90;99582.14;24483;1330;3052662;-64
2022/11/02 05:54:16;;;;;;;14.30;5.60;;;;;;;5.76;54.46;99575.05;24535;1332;3026549;-68
2022/11/02 05:56:45;;;;;;;12.70;5.00;;;;;;;5.67;54.72;99576.98;24605;1333;3025945;-66
2022/11/02 05:59:14;;;;;;;12.50;5.60;;;;;;;5.61;55.03;99569.55;24560;1324;3028428;-70
2022/11/02 06:01:43;;;;;;;16.50;6.20;;;;;;;5.59;55.39;99566.34;24545;1323;3048599;-66
2022/11/02 06:04:12;;;;;;;11.00;5.50;;;;;;;5.54;55.60;99566.17;24550;1324;3030354;-67
2022/11/02 06:06:42;;;;;;;13.20;5.70;;;;;;;5.57;55.65;99556.50;24515;1333;3053583;-64
2022/11/02 06:09:11;;;;;;;9.80;5.50;;;;;;;5.63;55.68;99552.63;24558;1332;3025725;-65
2022/11/02 06:11:42;;;;;;;14.40;7.10;;;;;;;5.70;55.80;99552.54;24512;1333;3028185;-60
2022/11/02 06:14:11;;;;;;;16.70;8.10;;;;;;;5.70;56.59;99558.80;24538;1333;3028429;-64
2022/11/02 06:16:43;;;;;;;16.50;8.00;;;;;;;5.71;56.85;99558.55;24537;1332;3028279;-69
2022/11/02 06:19:13;;;;;;;18.50;8.00;;;;;;;5.71;57.49;99560.15;24461;1326;3027241;-65
2022/11/02 06:21:42;;;;;;;22.50;8.20;;;;;;;5.74;57.23;99553.24;24470;1334;3051045;-66
2022/11/02 06:24:11;;;;;;;22.00;7.40;;;;;;;5.75;57.29;99547.13;24462;1318;3029278;-63
2022/11/02 06:26:45;;;;;;;20.10;9.00;;;;;;;5.91;57.25;99551.16;24497;1335;3068543;-64
2022/11/02 06:29:14;;;;;;;25.10;8.90;;;;;;;6.02;57.04;99544.88;24668;1333;3027932;-66
2022/11/02 06:31:45;;;;;;;29.40;9.00;;;;;;;6.03;56.81;99543.78;24578;1325;3029344;-64
2022/11/02 06:34:14;;;;;;;18.50;8.80;;;;;;;6.03;57.10;99545.34;24695;1333;3027647;-62
2022/11/02 06:36:43;;;;;;;24.60;9.80;;;;;;;6.01;57.14;99542.81;24727;1333;3049678;-63
2022/11/02 06:39:12;;;;;;;29.90;11.50;;;;;;;6.11;56.96;99540.84;24642;1318;3028087;-67
2022/11/02 06:41:42;;;;;;;21.90;8.70;;;;;;;6.26;56.76;99534.14;24535;1333;3069001;-65
2022/11/02 06:44:11;;;;;;;20.90;10.30;;;;;;;6.32;56.37;99536.31;24541;1324;3028469;-70
2022/11/02 06:46:42;;;;;;;25.10;8.30;;;;;;;6.42;55.79;99530.50;24546;1339;3050028;-67
2022/11/02 06:49:11;;;;;;;22.10;8.80;;;;;;;6.58;55.11;99528.63;24476;1326;3026666;-61
2022/11/02 06:51:40;;;;;;;18.50;8.40;;;;;;;6.62;55.46;99523.42;24526;1333;3051899;-64
2022/11/02 06:54:09;;;;;;;21.20;8.10;;;;;;;6.67;55.78;99521.98;24517;1324;3029432;-61
2022/11/02 06:56:39;;;;;;;15.50;7.40;;;;;;;6.82;55.26;99515.73;24554;1331;3052456;-66
2022/11/02 06:59:09;;;;;;;21.50;7.90;;;;;;;7.01;54.56;99513.51;24506;1324;3029483;-67
2022/11/02 07:01:38;;;;;;;17.10;7.40;;;;;;;7.19;54.06;99519.64;24520;1334;3052870;-66
2022/11/02 07:04:07;;;;;;;20.60;7.60;;;;;;;7.24;53.11;99518.55;24530;1321;3028211;-62
2022/11/02 07:06:37;;;;;;;17.80;8.00;;;;;;;7.32;52.82;99512.61;24495;1334;3052000;-66
2022/11/02 07:09:06;;;;;;;18.80;6.80;;;;;;;7.57;52.38;99508.33;24540;1330;3029606;-65
2022/11/02 07:11:35;;;;;;;17.40;7.00;;;;;;;7.74;52.07;99504.70;24498;1331;3057919;-64
2022/11/02 07:14:06;;;;;;;13.50;5.60;;;;;;;7.92;51.17;99501.94;24579;1331;3029660;-69
2022/11/02 07:16:37;;;;;;;18.30;6.90;;;;;;;8.06;50.22;99498.29;24554;1341;3026148;-66
2022/11/02 07:19:06;;;;;;;16.30;7.20;;;;;;;8.25;50.42;99494.89;24543;1333;3025643;-69
2022/11/02 07:21:36;;;;;;;16.40;6.60;;;;;;;8.40;49.94;99492.40;24540;1332;3053521;-68
2022/11/02 07:24:05;;;;;;;15.50;6.90;;;;;;;8.51;48.51;99496.39;24500;1324;3029077;-64
2022/11/02 07:26:35;;;;;;;16.30;7.00;;;;;;;8.58;49.92;99490.77;24520;1332;3056722;-66
2022/11/02 07:29:04;;;;;;;17.00;6.40;;;;;;;8.83;49.33;99493.86;24512;1324;3028308;-67
2022/11/02 07:31:33;;;;;;;17.60;7.60;;;;;;;8.90;48.73;99493.83;24524;1330;3050870;-71
2022/11/02 07:34:02;;;;;;;17.60;7.70;;;;;;;9.08;49.35;99487.80;24537;1333;3025423;-72
2022/11/02 07:36:32;;;;;;;16.80;7.30;;;;;;;9.22;48.79;99490.73;24470;1340;3069798;-69
2022/11/02 07:39:01;;;;;;;20.30;8.10;;;;;;;9.34;48.74;99485.89;24529;1326;3028076;-59
2022/11/02 07:41:31;;;;;;;16.10;7.20;;;;;;;9.36;48.52;99479.84;24442;1325;3051184;-62
2022/11/02 07:44:00;;;;;;;20.40;7.10;;;;;;;9.29;49.04;99476.87;24479;1333;3028593;-61
2022/11/02 07:46:40;;;;;;;15.60;7.10;;;;;;;9.32;49.24;99479.14;24577;1333;3052640;-63
2022/11/02 07:49:09;;;;;;;16.60;5.90;;;;;;;9.32;48.46;99477.25;23872;1326;4171502;-66
2022/11/02 07:51:39;;;;;;;14.50;5.90;;;;;;;9.45;47.82;99481.22;24471;1333;3026459;-67
2022/11/02 07:54:08;;;;;;;12.70;5.60;;;;;;;9.30;47.64;99484.34;24456;1326;3027856;-65
2022/11/02 07:56:38;;;;;;;15.20;6.20;;;;;;;9.20;48.14;99476.19;24524;1333;3053678;-66
2022/11/02 07:59:09;;;;;;;14.90;6.10;;;;;;;9.28;48.33;99481.83;24452;1330;3028375;-63
2022/11/02 08:01:40;;;;;;;;;;;;;;;9.25;48.32;99473.96;24479;1333;3053415;-68
2022/11/02 08:04:09;;;;;;;15.20;5.70;;;;;;;8.93;49.38;99468.02;24515;1324;3026783;-62
2022/11/02 08:06:39;;;;;;;14.30;5.50;;;;;;;8.83;50.07;99464.16;24442;1325;3056727;-69
2022/11/02 08:09:08;;;;;;;14.70;5.40;;;;;;;8.91;50.56;99459.90;24512;1317;3029287;-66
2022/11/02 08:11:37;;;;;;;12.00;6.30;;;;;;;8.96;50.52;99454.42;24492;1330;3051165;-66
2022/11/02 08:14:07;;;;;;;12.00;5.50;;;;;;;9.03;50.64;99454.19;24483;1332;3028845;-62
2022/11/02 08:16:37;;;;;;;14.70;5.40;;;;;;;8.97;50.48;99456.58;24621;1326;3026554;-64
2022/11/02 08:19:06;;;;;;;15.90;5.90;;;;;;;8.99;50.79;99443.77;24519;1332;3028472;-64
2022/11/02 08:21:36;;;;;;;14.60;5.30;;;;;;;9.05;50.78;99437.65;24445;1332;3055780;-61
2022/11/02 08:24:06;;;;;;;12.30;5.60;;;;;;;9.12;50.74;99435.65;24512;1332;3027839;-60
2022/11/02 08:26:35;;;;;;;12.10;5.30;;;;;;;9.21;50.05;99433.63;24613;1326;3028102;-65
2022/11/02 08:29:04;;;;;;;16.00;5.60;;;;;;;9.17;49.85;99435.58;24479;1326;3028790;-64
2022/11/02 08:31:33;;;;;;;16.20;5.90;;;;;;;9.26;50.05;99433.17;24554;1333;3052639;-65
2022/11/02 08:34:02;;;;;;;11.40;4.90;;;;;;;9.46;50.05;99429.23;24494;1332;3028825;-60
2022/11/02 08:36:35;;;;;;;11.00;4.80;;;;;;;9.67;49.22;99425.23;24490;1316;3058145;-67
2022/11/02 08:39:04;;;;;;;19.00;5.10;;;;;;;9.68;48.88;99419.27;24492;1341;3026300;-69
2022/11/02 08:41:33;;;;;;;10.30;5.40;;;;;;;9.88;47.88;99415.65;24450;1333;3029078;-62
2022/11/02 08:44:02;;;;;;;13.30;4.90;;;;;;;9.95;47.57;99419.96;24489;1333;3029250;-71
2022/11/02 08:46:32;;;;;;;11.90;4.30;;;;;;;10.14;47.17;99413.63;24474;1330;3052417;-69
2022/11/02 08:49:01;;;;;;;10.40;3.90;;;;;;;10.24;46.83;99405.17;24472;1325;3026368;-66
2022/11/02 08:51:32;;;;;;;9.20;4.30;;;;;;;10.40;46.63;99406.85;24557;1332;3057280;-66
2022/11/02 08:54:01;;;;;;;11.90;4.80;;;;;;;10.68;46.42;99405.98;24509;1332;3028688;-71
2022/11/02 09:01:20;;;;;;;14.10;5.50;;;;;;;10.93;47.03;99391.47;31037;1336;3012850;-66
2022/11/02 09:03:50;;;;;;;11.20;4.50;;;;;;;10.95;47.85;99389.64;24471;1328;3025958;-68
2022/11/02 09:06:19;;;;;;;9.40;5.10;;;;;;;11.04;48.44;99383.27;24521;1326;3028764;-67
2022/11/02 09:08:48;;;;;;;13.10;5.70;;;;;;;11.09;48.82;99376.80;24507;1333;3048902;-65
2022/11/02 09:11:19;;;;;;;12.00;4.10;;;;;;;11.01;52.13;99381.02;24468;1332;3027418;-63
2022/11/02 09:13:52;;;;;;;9.20;4.10;;;;;;;10.92;54.59;99376.31;23759;1341;4117339;-67
2022/11/02 09:16:22;;;;;;;6.40;2.90;;;;;;;11.01;55.11;99372.25;24538;1337;3049615;-63
2022/11/02 09:18:52;;;;;;;6.20;3.00;;;;;;;10.95;56.04;99373.83;24561;1325;3029615;-61
2022/11/02 09:21:21;;;;;;;10.90;3.60;;;;;;;10.93;56.50;99367.31;24521;1329;3027999;-65
2022/11/02 09:23:50;;;;;;;4.90;2.90;;;;;;;11.02;56.57;99362.00;24504;1334;3048431;-70
2022/11/02 09:26:19;;;;;;;9.50;3.60;;;;;;;11.13;56.37;99358.67;24531;1316;3026910;-64
2022/11/02 09:36:54;;;;;;;10.20;3.90;;;;;;;11.14;55.94;99347.92;30947;1343;3012933;-69
2022/11/02 09:39:27;;;;;;;8.90;4.20;;;;;;;11.16;56.19;99339.92;24517;1326;3068400;-67
2022/11/02 09:42:16;;;;;;;6.70;3.20;;;;;;;11.15;56.40;99336.66;24442;1345;3026370;-65
2022/11/02 09:44:49;;;;;;;8.60;3.00;;;;;;;11.06;57.31;99334.56;24386;1340;3049089;-66
2022/11/02 09:47:18;;;;;;;11.00;4.00;;;;;;;11.06;57.33;99331.27;24459;1340;3028346;-66
2022/11/02 09:49:47;;;;;;;7.80;3.50;;;;;;;11.03;57.68;99324.61;23791;1335;3057969;-66
2022/11/02 09:52:36;;;;;;;7.20;3.50;;;;;;;11.00;58.06;99317.41;24494;1334;3048830;-69
2022/11/02 09:55:16;;;;;;;6.60;2.90;;;;;;;10.98;57.85;99317.41;24545;1331;3069659;-67
2022/11/02 09:57:47;;;;;;;8.20;3.00;;;;;;;11.00;57.87;99311.32;24532;1349;3050654;-64
2022/11/02 10:00:17;;;;;;;7.40;2.80;;;;;;;11.10;57.63;99301.91;24503;1332;3026371;-67
2022/11/02 10:02:59;;;;;;;7.50;3.60;;;;;;;11.08;57.48;99304.80;24507;1334;3025845;-65
2022/11/02 10:06:04;;;;;;;8.00;3.60;;;;;;;11.21;57.09;99295.94;24553;1333;3054455;-65
2022/11/02 10:08:38;;;;;;;6.40;2.90;;;;;;;11.27;57.03;99292.70;24528;1338;3052342;-67
2022/11/02 10:11:34;;;;;;;6.40;3.20;;;;;;;11.30;56.92;99284.45;24556;1339;3053815;-66
2022/11/02 10:14:14;;;;;;;7.10;3.00;;;;;;;11.29;57.06;99288.37;24478;1336;3049658;-68
2022/11/02 10:16:56;;;;;;;10.40;4.00;;;;;;;11.35;57.41;99285.86;24476;1333;3069918;-65
2022/11/02 10:19:25;;;;;;;8.40;3.30;;;;;;;11.39;57.04;99281.26;24469;1332;3051269;-69
2022/11/02 10:21:56;;;;;;;8.40;3.60;;;;;;;11.30;57.70;99283.06;24524;1327;3028244;-65
2022/11/02 10:24:33;;;;;;;8.60;2.80;;;;;;;11.36;57.51;99278.27;24603;1333;3069186;-67
2022/11/02 10:27:05;;;;;;;6.60;3.00;;;;;;;11.35;57.78;99273.09;24537;1332;3050669;-68
2022/11/02 10:29:48;;;;;;;8.50;2.80;;;;;;;11.36;58.06;99270.72;24474;1327;3025893;-68
2022/11/02 10:32:17;;;;;;;5.70;3.20;;;;;;;11.43;58.26;99265.71;24538;1317;3052789;-66
2022/11/02 10:34:47;;;;;;;9.50;3.50;;;;;;;11.53;58.15;99260.48;24573;1339;3026661;-68
2022/11/02 10:37:35;;;;;;;7.40;3.40;;;;;;;11.52;58.59;99255.45;24505;1334;3026378;-67
2022/11/02 10:40:38;;;;;;;12.90;3.60;;;;;;;11.41;59.09;99251.10;24575;1331;3053926;-64
2022/11/02 10:43:23;;;;;;;13.90;3.70;;;;;;;11.31;59.62;99253.91;24543;1333;3053992;-67
2022/11/02 10:46:03;;;;;;;6.70;2.90;;;;;;;11.28;59.88;99251.11;24501;1337;3051965;-67
2022/11/02 10:48:55;;;;;;;7.10;3.50;;;;;;;11.53;59.30;99244.30;24540;1337;3052957;-66
2022/11/02 10:51:24;;;;;;;8.50;4.20;;;;;;;11.61;59.47;99242.43;24587;1332;3049552;-69
2022/11/02 10:53:53;;;;;;;9.10;3.80;;;;;;;11.58;59.69;99237.88;24428;1334;3026859;-71
2022/11/02 10:56:23;;;;;;;9.00;3.70;;;;;;;11.56;60.18;99239.39;24495;1336;3052773;-69
2022/11/02 10:58:59;;;;;;;6.90;3.80;;;;;;;11.54;60.64;99238.97;24510;1335;3026553;-69
2022/11/02 11:01:29;;;;;;;12.50;3.80;;;;;;;11.51;61.09;99237.61;24532;1324;3068224;-64
2022/11/02 11:04:01;;;;;;;8.40;3.80;;;;;;;11.48;61.30;99236.99;24562;1333;3025921;-68
2022/11/02 11:06:40;;;;;;;14.10;4.20;;;;;;;11.62;61.18;99230.77;24537;1335;3026697;-65
2022/11/02 11:09:17;;;;;;;8.90;4.20;;;;;;;11.65;61.17;99230.73;24480;1324;3054511;-65
2022/11/02 11:11:58;;;;;;;10.40;4.60;;;;;;;11.67;60.93;99225.29;24460;1331;3054009;-66
2022/11/02 11:14:29;;;;;;;23.70;9.40;;;;;;;11.65;61.58;99226.66;24580;1338;3052272;-71
2022/11/02 11:17:01;;;;;;;14.50;5.90;;;;;;;11.66;62.12;99221.90;24463;1340;3025834;-65
2022/11/02 11:19:40;;;;;;;10.10;5.10;;;;;;;11.48;62.93;99220.11;24565;1335;3026884;-67
2022/11/02 11:22:39;;;;;;;11.20;4.10;;;;;;;11.46;63.29;99211.66;24561;1340;3069021;-67
2022/11/02 11:25:11;;;;;;;9.10;3.80;;;;;;;11.57;63.34;99208.81;24515;1343;3051423;-67
2022/11/02 11:27:44;;;;;;;8.20;3.90;;;;;;;11.58;63.41;99210.33;24559;1337;3027191;-68
2022/11/02 11:30:25;;;;;;;10.10;4.20;;;;;;;11.59;63.46;99205.66;24455;1333;3026452;-66
2022/11/02 11:32:56;;;;;;;10.30;4.20;;;;;;;11.67;63.74;99200.77;24457;1334;3054197;-70
2022/11/02 11:35:28;;;;;;;8.20;4.00;;;;;;;11.65;63.49;99204.60;24562;1324;3027035;-65
2022/11/02 11:38:07;;;;;;;8.00;4.10;;;;;;;11.58;64.06;99199.25;24450;1332;3053401;-69
2022/11/02 11:40:37;;;;;;;9.40;4.20;;;;;;;11.61;64.09;99191.32;24553;1337;3049931;-66
2022/11/02 11:43:36;;;;;;;14.50;4.40;;;;;;;11.60;64.35;99187.92;24527;1329;3071814;-69
2022/11/02 11:46:07;;;;;;;8.50;3.40;;;;;;;11.63;64.38;99188.21;24528;1334;3029797;-68
2022/11/02 11:48:43;;;;;;;12.40;3.70;;;;;;;11.71;63.68;99183.80;24566;1334;3027787;-63
2022/11/02 11:51:32;;;;;;;9.30;4.20;;;;;;;11.67;63.91;99182.34;24513;1339;3054450;-67
2022/11/02 11:54:18;;;;;;;9.30;3.80;;;;;;;11.50;64.61;99180.31;24553;1330;3054304;-70
2022/11/02 11:56:54;;;;;;;11.70;3.90;;;;;;;11.47;64.78;99177.24;24553;1337;3051665;-69
2022/11/02 11:59:28;;;;;;;12.00;4.70;;;;;;;11.45;64.91;99175.43;24558;1334;3052311;-67
2022/11/02 12:02:00;;;;;;;9.20;3.60;;;;;;;11.42;65.20;99178.27;24512;1324;3026865;-65
2022/11/02 12:04:39;;;;;;;8.80;3.80;;;;;;;11.38;65.41;99177.10;24571;1334;3026592;-67
2022/11/02 12:07:24;;;;;;;11.10;3.80;;;;;;;11.34;65.68;99177.56;24538;1336;3048702;-67
2022/11/02 12:10:07;;;;;;;6.40;3.40;;;;;;;11.42;65.79;99177.24;24401;1342;3057875;-66
2022/11/02 12:12:48;;;;;;;12.80;3.90;;;;;;;11.44;65.66;99174.09;24557;1324;3053582;-68